createdAt,value
2019-05-20T00:01:32.645Z,11.20
2019-05-20T00:04:03.211Z,11.00
2019-05-20T00:06:34.207Z,11.30
2019-05-20T00:09:05.950Z,11.30
2019-05-20T00:11:36.270Z,11.50
2019-05-20T00:14:06.466Z,11.50
2019-05-20T00:16:39.591Z,11.20
2019-05-20T00:19:09.808Z,11.10
2019-05-20T00:21:40.426Z,11.50
2019-05-20T00:24:11.939Z,11.50
2019-05-20T00:26:42.669Z,11.30
2019-05-20T00:29:12.885Z,11.20
2019-05-20T00:31:43.105Z,11.10
2019-05-20T00:34:13.569Z,11.10
2019-05-20T00:36:44.312Z,11.20
2019-05-20T00:39:20.974Z,11.20
2019-05-20T00:41:51.656Z,11.10
2019-05-20T00:44:22.247Z,11.30
2019-05-20T00:46:52.830Z,11.20
2019-05-20T00:49:23.273Z,11.10
2019-05-20T00:51:53.580Z,11.10
2019-05-20T00:54:24.251Z,11.10
2019-05-20T00:56:54.711Z,11.20
2019-05-20T00:59:25.534Z,11.00
2019-05-20T01:01:56.021Z,11.10
2019-05-20T01:04:26.974Z,11.20
2019-05-20T01:06:57.618Z,11.10
2019-05-20T01:09:27.892Z,11.10
2019-05-20T01:12:17.137Z,11.20
2019-05-20T01:14:47.439Z,11.00
2019-05-20T01:17:17.760Z,11.30
2019-05-20T01:19:48.006Z,11.00
2019-05-20T01:22:18.316Z,11.00
2019-05-20T01:24:48.647Z,11.00
2019-05-20T01:27:19.261Z,11.30
2019-05-20T01:29:49.457Z,11.30
2019-05-20T01:32:19.765Z,11.20
2019-05-20T01:34:50.023Z,11.10
2019-05-20T01:37:20.725Z,11.10
2019-05-20T01:39:51.271Z,11.10
2019-05-20T01:42:21.448Z,11.20
2019-05-20T01:44:52.019Z,11.40
2019-05-20T01:47:22.589Z,11.10
2019-05-20T01:49:53.106Z,11.10
2019-05-20T01:52:23.262Z,11.30
2019-05-20T01:54:53.425Z,11.50
2019-05-20T01:57:24.028Z,11.20
2019-05-20T01:59:54.687Z,11.00
2019-05-20T02:02:25.135Z,11.10
2019-05-20T02:04:56.260Z,11.20
2019-05-20T02:07:26.599Z,11.10
2019-05-20T02:09:57.286Z,11.10
2019-05-20T02:12:27.999Z,11.10
2019-05-20T02:15:04.102Z,11.10
2019-05-20T02:17:34.327Z,11.00
2019-05-20T02:20:05.357Z,11.30
2019-05-20T02:22:36.147Z,11.50
2019-05-20T02:25:06.667Z,11.00
2019-05-20T02:27:36.921Z,11.30
2019-05-20T02:30:08.553Z,11.10
2019-05-20T02:32:38.847Z,11.20
2019-05-20T02:35:09.466Z,11.00
2019-05-20T02:37:40.141Z,11.10
2019-05-20T02:40:11.265Z,11.20
2019-05-20T02:42:41.859Z,11.00
2019-05-20T02:45:12.613Z,11.00
2019-05-20T02:47:42.720Z,11.20
2019-05-20T02:50:13.238Z,10.90
2019-05-20T02:52:43.852Z,11.10
2019-05-20T02:55:14.558Z,11.10
2019-05-20T02:57:45.040Z,11.10
2019-05-20T03:00:16.144Z,11.20
2019-05-20T03:02:46.330Z,11.00
2019-05-20T03:05:16.530Z,11.10
2019-05-20T03:07:46.766Z,11.10
2019-05-20T03:10:17.480Z,11.10
2019-05-20T03:12:47.759Z,11.10
2019-05-20T03:15:17.947Z,11.10
2019-05-20T03:17:48.248Z,11.20
2019-05-20T03:20:18.891Z,11.00
2019-05-20T03:22:49.186Z,11.20
2019-05-20T03:25:19.891Z,11.00
2019-05-20T03:27:50.212Z,11.00
2019-05-20T03:30:20.537Z,11.00
2019-05-20T03:32:50.725Z,11.10
2019-05-20T03:35:20.934Z,11.20
2019-05-20T03:37:51.142Z,11.00
2019-05-20T03:40:21.390Z,11.20
2019-05-20T03:42:51.693Z,11.20
2019-05-20T03:45:22.354Z,11.10
2019-05-20T03:47:53.033Z,11.50
2019-05-20T03:50:23.226Z,11.40
2019-05-20T03:52:53.520Z,11.40
2019-05-20T03:55:24.183Z,11.30
2019-05-20T03:57:54.466Z,11.30
2019-05-20T04:00:42.783Z,11.10
2019-05-20T04:03:13.267Z,11.10
2019-05-20T04:05:44.143Z,11.10
2019-05-20T04:08:14.629Z,11.10
2019-05-20T04:10:44.837Z,11.00
2019-05-20T04:13:15.057Z,11.10
2019-05-20T04:15:45.408Z,11.10
2019-05-20T04:18:15.632Z,11.20
2019-05-20T04:20:45.878Z,11.10
2019-05-20T04:23:16.141Z,11.40
2019-05-20T04:25:46.427Z,11.40
2019-05-20T04:28:17.036Z,11.40
2019-05-20T04:30:48.342Z,11.10
2019-05-20T04:33:18.528Z,11.00
2019-05-20T04:35:49.870Z,11.10
2019-05-20T04:38:20.232Z,11.20
2019-05-20T04:40:50.784Z,11.20
2019-05-20T04:43:21.080Z,11.00
2019-05-20T04:45:51.779Z,11.00
2019-05-20T04:48:22.831Z,11.00
2019-05-20T04:50:53.008Z,11.00
2019-05-20T04:53:23.727Z,11.40
2019-05-20T04:55:53.900Z,11.10
2019-05-20T04:58:24.219Z,11.10
2019-05-20T05:00:56.139Z,11.20
2019-05-20T05:03:26.873Z,11.10
2019-05-20T05:05:57.548Z,11.30
2019-05-20T05:08:27.747Z,11.40
2019-05-20T05:10:57.978Z,11.10
2019-05-20T05:13:28.160Z,11.10
2019-05-20T05:15:58.344Z,11.30
2019-05-20T05:18:28.581Z,11.20
2019-05-20T05:20:59.266Z,11.10
2019-05-20T05:23:29.844Z,11.10
2019-05-20T05:26:00.161Z,11.30
2019-05-20T05:28:30.709Z,11.10
2019-05-20T05:31:01.345Z,11.20
2019-05-20T05:33:31.988Z,11.30
2019-05-20T05:36:02.557Z,11.30
2019-05-20T05:38:33.046Z,11.10
2019-05-20T05:41:03.940Z,11.30
2019-05-20T05:43:34.216Z,11.20
2019-05-20T05:46:04.445Z,11.10
2019-05-20T05:48:34.976Z,11.40
2019-05-20T05:51:05.174Z,11.50
2019-05-20T05:53:35.864Z,11.20
2019-05-20T05:56:06.091Z,11.20
2019-05-20T05:58:36.646Z,11.30
2019-05-20T06:01:07.252Z,11.40
2019-05-20T06:03:37.592Z,11.40
2019-05-20T06:06:13.171Z,11.20
2019-05-20T06:08:39.832Z,11.20
2019-05-20T06:11:10.092Z,11.20
2019-05-20T06:13:40.882Z,11.10
2019-05-20T06:16:11.210Z,11.30
2019-05-20T06:18:41.511Z,11.60
2019-05-20T06:21:11.759Z,11.50
2019-05-20T06:23:41.977Z,11.50
2019-05-20T06:26:12.338Z,11.40
2019-05-20T06:28:42.863Z,11.30
2019-05-20T06:31:13.045Z,11.20
2019-05-20T06:33:43.626Z,11.40
2019-05-20T06:36:26.496Z,11.50
2019-05-20T06:38:55.328Z,11.20
2019-05-20T06:41:25.609Z,11.10
2019-05-20T06:43:55.819Z,11.10
2019-05-20T06:46:26.061Z,11.40
2019-05-20T06:48:56.355Z,11.40
2019-05-20T06:51:26.549Z,11.40
2019-05-20T06:53:57.237Z,11.50
2019-05-20T06:56:27.811Z,11.50
2019-05-20T06:58:58.401Z,11.50
2019-05-20T07:01:41.957Z,11.40
2019-05-20T07:04:12.571Z,11.60
2019-05-20T07:06:47.227Z,11.50
2019-05-20T07:09:14.629Z,11.70
2019-05-20T07:11:52.593Z,11.90
2019-05-20T07:14:18.254Z,11.80
2019-05-20T07:16:48.478Z,11.50
2019-05-20T07:19:18.727Z,11.60
2019-05-20T07:21:48.921Z,11.60
2019-05-20T07:24:19.528Z,11.50
2019-05-20T07:26:49.786Z,11.70
2019-05-20T07:29:20.404Z,11.50
2019-05-20T07:31:50.610Z,11.40
2019-05-20T07:34:21.103Z,11.70
2019-05-20T07:37:02.722Z,11.90
2019-05-20T07:39:23.884Z,11.50
2019-05-20T07:41:54.092Z,11.80
2019-05-20T07:44:24.295Z,11.70
2019-05-20T07:46:54.748Z,11.80
2019-05-20T07:49:25.748Z,11.70
2019-05-20T07:51:57.127Z,11.90
2019-05-20T07:54:27.920Z,11.70
2019-05-20T07:57:01.602Z,11.90
2019-05-20T07:59:33.616Z,11.90
2019-05-20T08:02:05.745Z,12.00
2019-05-20T08:04:36.013Z,11.90
2019-05-20T08:07:26.161Z,12.10
2019-05-20T08:09:45.253Z,11.80
2019-05-20T08:12:11.510Z,12.00
2019-05-20T08:14:42.158Z,12.00
2019-05-20T08:17:12.375Z,12.10
2019-05-20T08:19:42.585Z,12.00
2019-05-20T08:22:13.140Z,12.10
2019-05-20T08:24:43.501Z,12.00
2019-05-20T08:27:14.038Z,12.00
2019-05-20T08:29:44.584Z,12.10
2019-05-20T08:32:15.059Z,11.90
2019-05-20T08:34:45.299Z,11.70
2019-05-20T08:37:15.982Z,12.00
2019-05-20T08:39:46.699Z,12.10
2019-05-20T08:42:17.195Z,12.10
2019-05-20T08:44:47.884Z,12.10
2019-05-20T08:47:18.048Z,12.10
2019-05-20T08:49:48.694Z,12.10
2019-05-20T08:52:20.213Z,12.30
2019-05-20T08:54:50.399Z,12.30
2019-05-20T08:57:20.606Z,12.20
2019-05-20T08:59:53.014Z,12.20
2019-05-20T09:02:23.297Z,12.40
2019-05-20T09:04:53.527Z,12.40
2019-05-20T09:07:23.767Z,12.40
2019-05-20T09:09:54.393Z,12.50
2019-05-20T09:12:24.744Z,12.40
2019-05-20T09:14:55.025Z,12.40
2019-05-20T09:17:25.633Z,12.30
2019-05-20T09:19:55.816Z,12.30
2019-05-20T09:22:26.023Z,12.40
2019-05-20T09:24:57.090Z,12.30
2019-05-20T09:27:27.717Z,12.20
2019-05-20T09:29:58.439Z,12.20
2019-05-20T09:32:29.069Z,12.20
2019-05-20T09:34:59.717Z,12.30
2019-05-20T09:37:29.943Z,12.30
2019-05-20T09:40:00.537Z,12.20
2019-05-20T09:42:30.716Z,12.10
2019-05-20T09:45:03.236Z,12.10
2019-05-20T09:47:33.207Z,12.20
2019-05-20T09:50:03.515Z,12.20
2019-05-20T09:52:33.737Z,12.30
2019-05-20T09:55:04.920Z,12.20
2019-05-20T09:57:38.499Z,12.30
2019-05-20T10:00:09.773Z,12.50
2019-05-20T10:02:40.298Z,12.10
2019-05-20T10:05:11.368Z,12.30
2019-05-20T10:07:41.875Z,12.30
2019-05-20T10:10:12.342Z,12.30
2019-05-20T10:12:46.667Z,12.50
2019-05-20T10:15:14.615Z,12.50
2019-05-20T10:17:44.831Z,12.40
2019-05-20T10:20:15.765Z,12.30
2019-05-20T10:25:49.708Z,12.40
2019-05-20T10:28:19.990Z,12.40
2019-05-20T10:30:50.282Z,12.40
2019-05-20T10:33:41.363Z,12.30
2019-05-20T11:02:56.859Z,12.80
2019-05-20T11:05:27.065Z,13.10
2019-05-20T11:07:57.445Z,12.90
2019-05-20T11:10:28.486Z,12.80
2019-05-20T11:12:58.756Z,12.80
2019-05-20T11:15:28.995Z,13.00
2019-05-20T11:17:59.232Z,12.90
2019-05-20T11:20:29.470Z,13.30
2019-05-20T11:23:01.161Z,12.90
2019-05-20T11:25:32.462Z,12.80
2019-05-20T11:28:03.675Z,12.70
2019-05-20T11:30:33.881Z,12.90
2019-05-20T11:33:04.773Z,12.80
2019-05-20T11:35:35.135Z,13.00
2019-05-20T11:38:05.731Z,12.80
2019-05-20T11:40:36.080Z,12.60
2019-05-20T11:43:06.732Z,12.60
2019-05-20T11:45:37.080Z,12.70
2019-05-20T11:48:07.560Z,12.40
2019-05-20T11:50:37.790Z,12.70
2019-05-20T11:53:08.007Z,12.80
2019-05-20T11:55:38.977Z,12.80
2019-05-20T11:58:15.858Z,12.90
2019-05-20T12:00:41.804Z,12.80
2019-05-20T12:03:12.146Z,12.70
2019-05-20T12:05:43.441Z,12.80
2019-05-20T12:08:13.834Z,13.00
2019-05-20T12:10:44.040Z,13.20
2019-05-20T12:13:15.026Z,13.20
2019-05-20T12:15:45.686Z,13.50
2019-05-20T12:18:16.018Z,13.60
2019-05-20T12:20:46.634Z,13.60
2019-05-20T12:23:16.888Z,13.90
2019-05-20T12:25:47.195Z,13.90
2019-05-20T12:28:17.321Z,13.90
2019-05-20T12:30:47.666Z,13.90
2019-05-20T12:33:19.507Z,14.10
2019-05-20T12:35:49.662Z,14.20
2019-05-20T12:38:20.751Z,14.10
2019-05-20T12:40:50.921Z,14.00
2019-05-20T12:43:21.163Z,14.00
2019-05-20T12:45:51.473Z,14.10
2019-05-20T12:48:21.793Z,14.00
2019-05-20T12:50:52.442Z,14.30
2019-05-20T12:53:22.638Z,14.30
2019-05-20T12:55:52.887Z,14.20
2019-05-20T12:58:23.730Z,14.50
2019-05-20T13:01:23.677Z,14.30
2019-05-20T13:03:55.063Z,14.50
2019-05-20T13:06:25.319Z,14.20
2019-05-20T13:08:55.611Z,14.40
2019-05-20T13:11:26.210Z,14.10
2019-05-20T13:13:56.767Z,14.00
2019-05-20T13:16:26.978Z,14.00
2019-05-20T13:18:57.670Z,14.10
2019-05-20T13:21:27.937Z,14.10
2019-05-20T13:23:58.454Z,13.80
2019-05-20T13:26:28.743Z,13.90
2019-05-20T13:28:59.936Z,13.80
2019-05-20T13:31:30.632Z,13.70
2019-05-20T13:34:00.809Z,13.60
2019-05-20T13:36:31.681Z,13.70
2019-05-20T13:39:02.335Z,13.70
2019-05-20T13:41:32.637Z,13.40
2019-05-20T13:44:03.756Z,13.60
2019-05-20T13:46:34.337Z,13.80
2019-05-20T13:49:04.890Z,13.50
2019-05-20T13:51:38.348Z,13.60
2019-05-20T13:54:07.868Z,13.50
2019-05-20T13:56:38.115Z,13.60
2019-05-20T13:59:08.326Z,13.50
2019-05-20T14:01:38.558Z,13.70
2019-05-20T14:04:09.843Z,13.70
2019-05-20T14:06:40.771Z,13.80
2019-05-20T14:09:10.984Z,13.80
2019-05-20T14:11:41.922Z,13.90
2019-05-20T14:14:14.316Z,13.90
2019-05-20T14:16:44.147Z,13.50
2019-05-20T14:19:14.700Z,13.70
2019-05-20T14:21:44.914Z,13.50
2019-05-20T14:24:18.648Z,13.40
2019-05-20T14:26:50.216Z,13.30
2019-05-20T14:29:20.454Z,13.30
2019-05-20T14:31:51.647Z,13.30
2019-05-20T14:34:21.995Z,13.40
2019-05-20T14:36:53.123Z,13.10
2019-05-20T14:39:23.508Z,13.20
2019-05-20T14:41:53.782Z,13.30
2019-05-20T14:44:24.106Z,13.20
2019-05-20T14:46:54.386Z,12.90
2019-05-20T14:49:24.603Z,12.90
2019-05-20T14:51:54.732Z,13.30
2019-05-20T14:54:25.349Z,13.00
2019-05-20T14:56:56.027Z,13.30
2019-05-20T14:59:26.696Z,13.20
2019-05-20T15:01:56.945Z,13.30
2019-05-20T15:04:29.393Z,13.20
2019-05-20T15:07:00.830Z,13.00
2019-05-20T15:09:31.799Z,12.90
2019-05-20T15:12:02.021Z,12.80
2019-05-20T15:14:32.301Z,12.80
2019-05-20T15:17:02.965Z,12.80
2019-05-20T15:19:33.599Z,12.80
2019-05-20T15:22:04.005Z,12.80
2019-05-20T15:24:34.191Z,12.80
2019-05-20T15:27:04.878Z,12.90
2019-05-20T15:29:35.112Z,13.20
2019-05-20T15:32:05.363Z,13.30
2019-05-20T15:34:35.621Z,13.00
2019-05-20T15:37:06.230Z,13.40
2019-05-20T15:39:37.787Z,13.30
2019-05-20T15:42:08.066Z,13.30
2019-05-20T15:44:38.361Z,13.20
2019-05-20T15:47:08.574Z,13.50
2019-05-20T15:49:38.930Z,13.20
2019-05-20T15:52:09.129Z,13.20
2019-05-20T15:54:39.358Z,13.30
2019-05-20T15:57:09.563Z,13.30
2019-05-20T16:00:27.191Z,13.10
2019-05-20T16:02:57.790Z,13.10
2019-05-20T16:05:28.453Z,13.40
2019-05-20T16:07:58.713Z,12.90
2019-05-20T16:10:29.821Z,12.80
2019-05-20T16:13:00.534Z,12.90
2019-05-20T16:15:30.905Z,12.80
2019-05-20T16:18:01.228Z,12.90
2019-05-20T16:20:31.610Z,13.00
2019-05-20T16:23:02.421Z,13.00
2019-05-20T16:25:32.636Z,13.00
2019-05-20T16:28:03.802Z,12.90
2019-05-20T16:30:34.129Z,12.90
2019-05-20T16:33:04.434Z,13.00
2019-05-20T16:35:35.338Z,12.80
2019-05-20T16:38:05.751Z,12.80
2019-05-20T16:40:36.050Z,13.00
2019-05-20T16:43:06.448Z,13.20
2019-05-20T16:45:36.670Z,13.20
2019-05-20T16:48:06.950Z,13.20
2019-05-20T16:50:37.727Z,13.50
2019-05-20T16:53:08.234Z,13.50
2019-05-20T16:55:38.926Z,13.70
2019-05-20T17:00:44.771Z,13.70
2019-05-20T17:03:15.434Z,13.80
2019-05-20T17:05:46.374Z,14.10
2019-05-20T17:08:16.841Z,14.10
2019-05-20T17:10:47.193Z,14.40
2019-05-20T17:13:17.526Z,14.10
2019-05-20T17:15:48.599Z,13.90
2019-05-20T17:18:18.879Z,13.90
2019-05-20T17:20:49.447Z,13.70
2019-05-20T17:23:19.751Z,13.60
2019-05-20T17:25:50.842Z,13.50
2019-05-20T17:28:21.501Z,13.50
2019-05-20T17:30:51.865Z,13.50
2019-05-20T17:33:22.646Z,13.40
2019-05-20T17:35:52.927Z,13.30
2019-05-20T17:38:23.154Z,13.30
2019-05-20T17:40:53.686Z,13.20
2019-05-20T17:43:24.354Z,13.40
2019-05-20T17:45:54.576Z,13.70
2019-05-20T17:48:24.832Z,13.50
2019-05-20T17:50:55.130Z,13.50
2019-05-20T17:53:25.650Z,13.50
2019-05-20T17:55:56.274Z,13.40
2019-05-20T17:58:27.131Z,13.70
2019-05-20T18:01:12.191Z,13.70
2019-05-20T18:03:29.286Z,13.50
2019-05-20T18:05:59.559Z,13.50
2019-05-20T18:08:31.662Z,13.70
2019-05-20T18:11:01.957Z,13.50
2019-05-20T18:13:32.236Z,13.40
2019-05-20T18:16:02.511Z,13.20
2019-05-20T18:18:33.096Z,13.10
2019-05-20T18:21:03.321Z,13.20
2019-05-20T18:23:33.928Z,13.20
2019-05-20T18:26:04.193Z,13.10
2019-05-20T18:28:34.440Z,13.20
2019-05-20T18:31:05.186Z,13.10
2019-05-20T18:33:35.420Z,13.10
2019-05-20T18:36:05.670Z,12.80
2019-05-20T18:38:35.872Z,12.90
2019-05-20T18:41:06.129Z,12.80
2019-05-20T18:43:36.355Z,12.80
2019-05-20T18:46:06.613Z,12.90
2019-05-20T18:48:37.219Z,12.80
2019-05-20T18:51:07.785Z,12.60
2019-05-20T18:53:38.428Z,12.50
2019-05-20T18:56:08.939Z,12.50
2019-05-20T18:58:39.388Z,12.40
2019-05-20T19:01:09.987Z,12.50
2019-05-20T19:03:40.366Z,12.40
2019-05-20T19:06:10.619Z,12.50
2019-05-20T19:08:41.790Z,12.20
2019-05-20T19:11:12.048Z,12.20
2019-05-20T19:13:42.235Z,12.20
2019-05-20T19:16:12.501Z,12.20
2019-05-20T19:18:42.767Z,12.20
2019-05-20T19:21:12.996Z,12.10
2019-05-20T19:23:43.169Z,11.80
2019-05-20T19:26:24.348Z,12.20
2019-05-20T19:28:46.035Z,11.80
2019-05-20T19:31:16.609Z,11.90
2019-05-20T19:33:46.819Z,11.80
2019-05-20T19:36:17.065Z,11.90
2019-05-20T19:38:47.688Z,11.80
2019-05-20T19:41:17.927Z,11.70
2019-05-20T19:43:48.425Z,11.50
2019-05-20T19:46:18.649Z,11.90
2019-05-20T19:48:49.524Z,11.50
2019-05-20T19:51:20.137Z,11.70
2019-05-20T19:53:50.379Z,11.70
2019-05-20T19:56:20.635Z,11.50
2019-05-20T19:58:50.881Z,11.40
2019-05-20T20:01:21.177Z,11.30
2019-05-20T20:03:51.645Z,11.30
2019-05-20T20:06:21.879Z,11.30
2019-05-20T20:08:52.121Z,11.30
2019-05-20T20:11:22.420Z,11.20
2019-05-20T20:13:54.775Z,11.20
2019-05-20T20:16:25.051Z,11.20
2019-05-20T20:18:55.271Z,11.10
2019-05-20T20:21:25.927Z,11.00
2019-05-20T20:23:56.456Z,10.80
2019-05-20T20:26:26.699Z,10.80
2019-05-20T20:28:57.240Z,10.80
2019-05-20T20:31:27.697Z,10.90
2019-05-20T20:33:58.195Z,10.80
2019-05-20T20:36:28.456Z,10.90
2019-05-20T20:38:59.053Z,10.90
2019-05-20T20:41:29.308Z,10.70
2019-05-20T20:43:59.938Z,11.00
2019-05-20T20:46:30.201Z,10.40
2019-05-20T20:49:00.908Z,10.50
2019-05-20T20:51:31.389Z,10.40
2019-05-20T20:54:01.646Z,10.50
2019-05-20T20:56:34.219Z,10.50
2019-05-20T20:59:03.749Z,10.60
2019-05-20T21:01:34.336Z,10.50
2019-05-20T21:04:04.948Z,10.50
2019-05-20T21:06:35.574Z,10.40
2019-05-20T21:09:06.778Z,10.40
2019-05-20T21:11:36.990Z,10.60
2019-05-20T21:14:07.861Z,10.50
2019-05-20T21:16:38.635Z,10.00
2019-05-20T21:19:08.863Z,10.20
2019-05-20T21:21:38.969Z,10.40
2019-05-20T21:24:09.129Z,10.60
2019-05-20T21:26:39.434Z,10.50
2019-05-20T21:29:09.585Z,10.50
2019-05-20T21:31:39.805Z,10.50
2019-05-20T21:34:10.001Z,10.30
2019-05-20T21:36:47.812Z,10.30
2019-05-20T21:39:12.758Z,10.50
2019-05-20T21:41:42.972Z,10.30
2019-05-20T21:44:13.831Z,10.50
2019-05-20T21:46:44.066Z,10.10
2019-05-20T21:49:14.626Z,10.40
2019-05-20T21:51:45.233Z,10.40
2019-05-20T21:54:15.448Z,10.50
2019-05-20T21:56:45.621Z,10.50
2019-05-20T21:59:15.969Z,10.40
2019-05-20T22:01:46.551Z,10.60
2019-05-20T22:04:17.630Z,10.40
2019-05-20T22:06:48.122Z,10.60
2019-05-20T22:09:18.440Z,10.50
2019-05-20T22:11:49.028Z,10.50
2019-05-20T22:14:19.304Z,10.70
2019-05-20T22:16:49.822Z,10.70
2019-05-20T22:19:20.146Z,10.50
2019-05-20T22:21:58.971Z,10.40
2019-05-20T22:24:29.193Z,10.50
2019-05-20T22:26:59.645Z,10.70
2019-05-20T22:29:29.880Z,10.40
2019-05-20T22:32:00.116Z,10.70
2019-05-20T22:34:30.328Z,10.40
2019-05-20T22:37:00.612Z,10.80
2019-05-20T22:39:30.855Z,11.00
2019-05-20T22:42:01.321Z,10.80
2019-05-20T22:44:31.555Z,10.70
2019-05-20T22:47:01.831Z,10.80
2019-05-20T22:49:32.734Z,10.70
2019-05-20T22:52:03.978Z,10.70
2019-05-20T22:54:34.667Z,10.60
2019-05-20T22:57:04.969Z,10.80
2019-05-20T22:59:35.170Z,10.70
2019-05-20T23:02:05.699Z,10.90
2019-05-20T23:04:36.018Z,10.80
2019-05-20T23:07:06.634Z,10.70
2019-05-20T23:09:36.855Z,10.60
2019-05-20T23:12:07.333Z,10.90
2019-05-20T23:14:37.910Z,10.60
2019-05-20T23:17:08.195Z,10.80
2019-05-20T23:19:38.411Z,10.80
2019-05-20T23:22:08.613Z,10.70
2019-05-20T23:24:38.783Z,10.90
2019-05-20T23:27:09.114Z,10.90
2019-05-20T23:29:39.375Z,10.90
2019-05-20T23:32:09.567Z,10.80
2019-05-20T23:34:39.759Z,10.80
2019-05-20T23:37:10.196Z,10.80
2019-05-20T23:39:40.696Z,10.80
2019-05-20T23:42:11.958Z,10.80
2019-05-20T23:44:42.177Z,10.70
2019-05-20T23:47:12.643Z,10.90
2019-05-20T23:49:42.873Z,10.80
2019-05-20T23:52:13.430Z,10.70
2019-05-20T23:54:44.040Z,10.80
2019-05-20T23:57:14.403Z,10.70
2019-05-20T23:59:44.697Z,10.70
